x

Cape Cod - 24 Nm East Of Provincetown, Ma (44018) Wave Buoy

4:50am - Fri 30th Sep 2016 All times are EDT. -4 hours from GMT.

  • Sig Wave height 8.5ft
  • Swell Direction
  • Peak Period 9s
  • Average Period 6s
  • Wind
    22mph, 27mph gusts
  • Sea Temp 63°f
  • Air Temp 60°f
  • Sea Pressure 1030.3mb
  • Cape Cod - 24 Nm East Of Provincetown, Ma
  • Cape Cod - 24 Nm East Of Provincetown, Ma

More Historic Weather Station data

Upgrade to MSW Pro to gain access to the past 30 days of data for over 8000 Wavebouys and Weather Stations around the globe.

Join Pro

Comparision Forecast

View Surf forecast
   
Fri 09/30 4:50am 8.5ft 9s 6s 22 27 mph 1030.3mb 63f 60f
3:50am 8ft 9s 6s 20 25 mph 1030.5mb 63f 60f
2:50am 8ft 9s 6s 20 25 mph 1030.5mb 63f 60f
1:50am 9ft 8s 6s 20 25 mph 1030.6mb 63f 60f
12:50am 10ft 8s 6s 22 29 mph 1031.2mb 63f 60f
Thu 09/29 11:50pm 9ft 7s 6s 25 27 mph 1031.3mb 63f 59f
10:50pm 8ft 8s 6s 25 29 mph 1031.6mb 63f 59f
9:50pm 8ft 8s 6s 27 31 mph 1031.5mb 63f 59f
8:50pm 10ft 8s 6s 25 31 mph 1031.6mb 63f 59f
6:50pm 8ft 8s 6s 25 29 mph 1031.1mb 64f 58f
5:50pm 9ft 8s 6s 22 27 mph 1031.1mb 64f 58f
4:50pm 9ft 8s 6s 22 27 mph 1031mb 64f 58f
3:50pm 9.5ft 9s 7s 22 27 mph 1030.8mb 64f 59f
2:50pm 9ft 9s 6s 22 27 mph 1030.7mb 64f 59f
1:50pm 10ft 9s 7s 22 29 mph 1030.8mb 64f 59f
12:50pm 11ft 9s 7s 22 27 mph 1030.9mb 64f 58f
11:50am 10ft 9s 6s 25 29 mph 1030.1mb 64f 58f
10:50am 10ft 8s 6s 25 31 mph 1030mb 64f 58f
9:50am 11ft 8s 7s 22 27 mph 1030.2mb 64f 58f
8:50am 9.5ft 8s 6s 25 36 mph 1029mb 64f 58f
7:50am 9.5ft 8s 6s 25 31 mph 1028.6mb 64f 58f
6:50am 10ft 8s 6s 27 31 mph 1027.9mb 64f 59f
5:50am 10.5ft 8s 6s 27 31 mph 1027.1mb 64f 59f
4:50am 11ft 8s 6s 27 31 mph 1026.5mb 64f 60f
3:50am 10ft 8s 6s 29 34 mph 1025.9mb 64f 60f
2:50am 10.5ft 8s 6s 27 34 mph 1025.7mb 64f 60f
1:50am 10ft 8s 6s 29 34 mph 1025.5mb 64f 60f
12:50am 10ft 8s 6s 27 31 mph 1025.3mb 64f 60f
Wed 09/28 11:50pm 9ft 8s 6s 27 31 mph 1025.3mb 64f 61f
10:50pm 9ft 7s 6s 27 34 mph 1024.7mb 64f 61f
9:50pm 9ft 7s 6s 27 31 mph 1024.3mb 64f 61f
8:50pm 9ft 7s 6s 27 31 mph 1024.1mb 64f 61f
7:50pm 9ft 7s 6s 27 31 mph 1023.4mb 64f 61f
6:50pm 8.5ft 7s 6s 27 31 mph 1022.9mb 65f 61f
5:50pm 8ft 8s 6s 25 31 mph 1023mb 65f 60f
4:50pm 8ft 8s 6s 25 31 mph 1022.4mb 65f 60f
3:50pm 7ft 8s 6s 25 31 mph 1022.2mb 65f 60f
2:50pm 7ft 7s 6s 25 29 mph 1022.2mb 65f 60f
1:50pm 7ft 7s 5s 25 27 mph 1021.8mb 65f 60f
12:50pm 7ft 7s 5s 25 31 mph 1022mb 65f 60f
11:50am 6ft 6s 5s 27 31 mph 1021.4mb 65f 60f
10:50am 6ft 6s 5s 25 27 mph 1021.6mb 65f 60f
9:50am 6ft 6s 5s 22 27 mph 1021.4mb 65f 60f
8:50am 5ft 5s 5s 22 27 mph 1021.1mb 65f 60f
7:50am 5ft 5s 5s 22 25 mph 1020.4mb 65f 60f
6:50am 4.5ft 5s 5s 20 25 mph 1020mb 65f 60f
5:50am 4.5ft 5s 4s 22 25 mph 1019mb 65f 60f
4:50am 4.5ft 4s 4s 20 22 mph 1018.5mb 65f 61f
3:50am 3.5ft 8s 4s 20 22 mph 1018mb 65f 62f
2:50am 3.5ft 8s 5s 20 22 mph 1017.5mb 65f 62f
1:50am 3ft 8s 5s 18 20 mph 1017mb 65f 62f
12:50am 3.5ft 8s 5s 13 16 mph 1016.9mb 65f 63f
Tue 09/27 11:50pm 3.5ft 8s 6s 11 13 mph 1016.5mb 65f 64f
10:50pm 4ft 8s 6s 11
mph
1016mb 65f 64f
9:50pm 4ft 7s 6s 9
mph
1015.3mb 65f 64f
8:50pm 4.5ft 7s 6s 7
mph
1015mb 65f 64f
7:50pm 4ft 8s 6s 4
mph
1014.5mb 65f 64f
6:50pm 3.5ft 7s 6s 4
mph
1013.6mb 66f 64f
5:50pm 3ft 7s 6s 7
mph
1013.2mb 66f 64f
4:50pm 2.5ft 6s 5s 7
mph
1013.3mb 66f 64f
3:50pm 2.5ft 6s 5s 7 9 mph 1012.5mb 66f 64f
2:50pm 3ft 6s 5s 9 11 mph 1012.3mb 66f 65f
1:50pm 3ft 6s 5s 7 9 mph 1012mb 66f 65f
12:50pm 3ft 6s 5s 11 13 mph 1012mb 65f 64f
11:50am 3.5ft 5s 5s 13 16 mph 1011.5mb 66f 65f
10:50am 3.5ft 5s 4s 22 25 mph 1011.4mb 66f 65f
9:50am 3.5ft 5s 4s 22 27 mph 1011.7mb 65f 65f
8:50am 3.5ft 5s 4s 22 25 mph 1012.4mb 65f 65f
7:50am 3.5ft 5s 4s 22 27 mph 1012.5mb 65f 66f
6:50am 3ft 5s 4s 20 22 mph 1013mb 65f 65f
5:50am 3ft 5s 4s 20 22 mph 1013.6mb 65f 65f
4:50am 2.5ft 5s 4s 18 22 mph 1014.2mb 65f 64f
3:50am 3ft 5s 4s 20 22 mph 1015.1mb 65f 64f
2:50am 3ft 4s 4s 20 22 mph 1015.8mb 65f 64f
1:50am 3ft 4s 4s 20 27 mph 1016.3mb 65f 63f
12:50am 3ft 4s 4s 22 25 mph 1017mb 65f 63f
Mon 09/26 11:50pm 2.5ft 4s 4s 20 22 mph 1018mb 65f 62f
10:50pm 2.5ft 4s 4s 20 22 mph 1018.3mb 65f 62f
9:50pm 2.5ft 4s 4s 18 22 mph 1018.4mb 65f 62f
8:50pm 2.5ft 3s 4s 18 22 mph 1018.7mb 65f 61f
7:50pm 2ft 10s 4s 18 20 mph 1019.1mb 66f 60f
6:50pm 1.6ft 4s 4s 16 20 mph 1019.5mb 66f 59f
5:50pm 1.6ft 4s 4s 9 13 mph 1019.9mb 66f 58f
4:50pm 2ft 4s 4s 2
mph
1020.3mb 66f 58f
3:50pm 2ft 4s 4s 2 4 mph 1020.9mb 66f 58f
2:50pm 2ft 5s 4s 4 9 mph 1021.3mb 66f 58f
1:50pm 2ft 4s 4s 7 9 mph 1021.7mb 66f 57f
12:50pm 2ft 5s 4s 7 9 mph 1022.2mb 66f 57f
11:50am 2.5ft 5s 4s 7 9 mph 1022.4mb 66f 57f
10:50am 2.5ft 6s 5s 4 11 mph 1022.6mb 65f 57f
9:50am 2.5ft 5s 4s 9 11 mph 1022.6mb 65f 57f